createdAt,value
2023-01-04T00:01:46.122Z,59.00
2023-01-04T00:04:49.696Z,53.00
2023-01-04T00:07:55.267Z,53.25
2023-01-04T00:11:02.655Z,40.00
2023-01-04T00:14:06.866Z,53.00
2023-01-04T00:17:10.505Z,54.75
2023-01-04T00:20:14.465Z,49.25
2023-01-04T00:23:19.483Z,51.50
2023-01-04T00:26:25.701Z,46.75
2023-01-04T00:29:29.678Z,49.00
2023-01-04T00:32:33.563Z,58.50
2023-01-04T00:35:45.920Z,52.75
2023-01-04T00:39:21.321Z,52.50
2023-01-04T00:42:25.106Z,52.25
2023-01-04T00:45:29.125Z,53.75
2023-01-04T00:48:37.804Z,54.50
2023-01-04T00:51:44.278Z,45.50
2023-01-04T00:54:49.196Z,50.50
2023-01-04T00:57:54.933Z,49.25
2023-01-04T01:00:58.505Z,46.50
2023-01-04T01:04:05.415Z,53.50
2023-01-04T01:07:09.081Z,15.00
2023-01-04T01:10:14.286Z,52.50
2023-01-04T01:13:19.600Z,56.25
2023-01-04T01:16:53.621Z,49.75
2023-01-04T01:19:49.324Z,51.25
2023-01-04T01:22:53.177Z,53.25
2023-01-04T01:26:01.825Z,55.25
2023-01-04T01:29:06.035Z,51.00
2023-01-04T01:32:10.300Z,48.75
2023-01-04T01:35:14.937Z,51.25
2023-01-04T01:38:18.979Z,52.50
2023-01-04T01:41:27.404Z,53.75
2023-01-04T01:45:00.647Z,48.50
2023-01-04T01:48:09.191Z,47.25
2023-01-04T01:51:13.103Z,54.75
2023-01-04T01:54:22.563Z,52.75
2023-01-04T01:57:33.329Z,47.00
2023-01-04T02:00:37.959Z,50.50
2023-01-04T02:03:43.785Z,59.75
2023-01-04T02:06:51.319Z,59.00
2023-01-04T02:09:56.640Z,58.25
2023-01-04T02:13:07.489Z,58.25
2023-01-04T02:16:16.103Z,52.50
2023-01-04T02:19:55.312Z,49.25
2023-01-04T02:23:36.137Z,57.25
2023-01-04T02:27:21.849Z,52.75
2023-01-04T02:31:02.513Z,48.00
2023-01-04T02:34:15.199Z,47.00
2023-01-04T02:37:27.996Z,55.50
2023-01-04T02:40:41.035Z,47.50
2023-01-04T02:44:12.444Z,50.25
2023-01-04T02:47:44.601Z,51.75
2023-01-04T02:50:53.826Z,51.25
2023-01-04T02:54:00.353Z,48.00
2023-01-04T02:57:28.126Z,47.00
2023-01-04T03:01:05.340Z,49.75
2023-01-04T03:04:42.572Z,43.50
2023-01-04T03:07:54.485Z,42.00
2023-01-04T03:11:02.956Z,45.00
2023-01-04T03:14:31.668Z,1.50
2023-01-04T03:17:44.365Z,46.25
2023-01-04T03:20:53.408Z,40.25
2023-01-04T03:24:17.591Z,43.25
2023-01-04T03:27:37.112Z,43.25
2023-01-04T03:31:05.492Z,52.50
2023-01-04T03:34:27.422Z,46.00
2023-01-04T03:37:44.715Z,43.00
2023-01-04T03:41:19.167Z,42.00
2023-01-04T03:44:47.415Z,47.75
2023-01-04T03:48:19.478Z,46.50
2023-01-04T03:51:28.082Z,41.75
2023-01-04T03:54:38.556Z,47.75
2023-01-04T03:57:44.377Z,49.25
2023-01-04T04:00:49.395Z,43.25
2023-01-04T04:04:10.908Z,58.00
2023-01-04T04:07:32.243Z,57.25
2023-01-04T04:10:37.213Z,49.75
2023-01-04T04:13:42.304Z,49.75
2023-01-04T04:16:51.183Z,58.50
2023-01-04T04:19:55.580Z,65.50
2023-01-04T04:22:59.072Z,136.67
2023-01-04T04:26:04.786Z,116.33
2023-01-04T04:29:08.336Z,45.25
2023-01-04T04:32:12.396Z,48.25
2023-01-04T04:35:16.105Z,45.75
2023-01-04T04:38:20.164Z,42.25
2023-01-04T04:41:41.449Z,45.00
2023-01-04T04:44:45.791Z,42.50
2023-01-04T04:47:49.394Z,42.00
2023-01-04T04:50:53.551Z,45.50
2023-01-04T04:53:57.274Z,46.50
2023-01-04T04:57:02.648Z,57.25
2023-01-04T05:00:08.469Z,65.00
2023-01-04T05:03:12.566Z,73.25
2023-01-04T05:06:16.356Z,69.25
2023-01-04T05:09:20.678Z,59.50
2023-01-04T05:12:42.956Z,65.50
2023-01-04T05:15:50.274Z,88.33
2023-01-04T05:18:53.806Z,80.75
2023-01-04T05:21:57.938Z,68.00
2023-01-04T05:25:02.758Z,63.25
2023-01-04T05:28:09.435Z,95.33
2023-01-04T05:31:14.694Z,72.00
2023-01-04T05:34:22.332Z,75.75
2023-01-04T05:37:26.507Z,72.75
2023-01-04T05:40:32.487Z,69.50
2023-01-04T05:43:37.830Z,87.00
2023-01-04T05:46:41.993Z,64.25
2023-01-04T05:49:46.570Z,64.75
2023-01-04T05:52:51.519Z,69.25
2023-01-04T05:55:55.183Z,75.00
2023-01-04T05:59:00.724Z,69.00
2023-01-04T06:02:04.409Z,80.00
2023-01-04T06:05:10.794Z,92.33
2023-01-04T06:08:14.500Z,71.25
2023-01-04T06:11:24.006Z,85.00
2023-01-04T06:14:32.597Z,72.67
2023-01-04T06:17:37.059Z,95.00
2023-01-04T06:20:40.895Z,79.75
2023-01-04T06:23:47.373Z,88.00
2023-01-04T06:26:52.238Z,93.33
2023-01-04T06:29:57.749Z,81.50
2023-01-04T06:33:01.275Z,75.50
2023-01-04T06:36:06.680Z,67.50
2023-01-04T06:39:10.644Z,75.25
2023-01-04T06:42:28.719Z,68.00
2023-01-04T06:45:33.624Z,66.50
2023-01-04T06:48:37.717Z,64.00
2023-01-04T06:51:41.320Z,58.25
2023-01-04T06:54:46.115Z,60.75
2023-01-04T06:57:49.584Z,61.00
2023-01-04T07:00:55.560Z,58.75
2023-01-04T07:03:59.190Z,60.50
2023-01-04T07:07:04.580Z,62.00
2023-01-04T07:10:09.895Z,221.00
2023-01-04T07:13:14.848Z,204.50
2023-01-04T07:16:20.442Z,76.25
2023-01-04T07:19:24.429Z,58.75
2023-01-04T07:22:27.889Z,103.00
2023-01-04T07:25:31.842Z,84.00
2023-01-04T07:28:52.747Z,69.75
2023-01-04T07:31:58.695Z,72.25
2023-01-04T07:35:02.125Z,59.00
2023-01-04T07:38:05.966Z,58.00
2023-01-04T07:41:09.442Z,57.75
2023-01-04T07:44:14.029Z,57.25
2023-01-04T07:52:03.242Z,63.50
2023-01-04T07:55:07.844Z,107.33
2023-01-04T07:58:23.760Z,118.67
2023-01-04T08:01:28.561Z,69.75
2023-01-04T08:04:35.165Z,95.33
2023-01-04T08:07:40.347Z,106.00
2023-01-04T08:10:44.664Z,115.67
2023-01-04T08:13:48.217Z,116.33
2023-01-04T08:16:52.837Z,115.67
2023-01-04T08:19:56.412Z,125.00
2023-01-04T08:23:01.651Z,125.00
2023-01-04T08:26:05.936Z,122.33
2023-01-04T08:29:10.839Z,138.67
2023-01-04T08:32:16.592Z,140.50
2023-01-04T08:35:20.714Z,142.75
2023-01-04T08:42:10.898Z,160.25
2023-01-04T08:45:17.676Z,136.67
2023-01-04T08:48:24.714Z,103.33
2023-01-04T08:51:29.952Z,85.00
2023-01-04T08:54:35.873Z,103.00
2023-01-04T08:57:39.404Z,82.75
2023-01-04T09:00:43.489Z,63.00
2023-01-04T09:03:46.913Z,75.50
2023-01-04T09:06:51.114Z,68.75
2023-01-04T09:09:57.192Z,148.00
2023-01-04T09:13:01.267Z,62.50
2023-01-04T09:16:07.539Z,65.25
2023-01-04T09:19:19.822Z,64.25
2023-01-04T09:22:25.967Z,58.50
2023-01-04T09:25:31.604Z,90.00
2023-01-04T09:28:35.096Z,65.00
2023-01-04T09:31:39.096Z,58.25
2023-01-04T09:34:42.667Z,108.00
2023-01-04T09:37:46.482Z,89.33
2023-01-04T09:41:02.872Z,74.25
2023-01-04T09:44:19.891Z,54.75
2023-01-04T09:47:31.679Z,53.25
2023-01-04T09:50:49.928Z,57.25
2023-01-04T09:54:02.187Z,42.50
2023-01-04T09:57:19.388Z,48.00
2023-01-04T10:00:30.683Z,51.75
2023-01-04T10:03:37.142Z,56.50
2023-01-04T10:06:43.179Z,53.00
2023-01-04T10:09:47.402Z,53.75
2023-01-04T10:13:06.751Z,55.75
2023-01-04T10:16:44.224Z,50.00
2023-01-04T10:23:43.212Z,55.25
2023-01-04T10:26:48.435Z,63.25
2023-01-04T10:33:30.030Z,73.75
2023-01-04T10:36:34.095Z,90.25
2023-01-04T10:39:38.522Z,80.50
2023-01-04T10:42:49.977Z,56.75
2023-01-04T10:46:02.123Z,58.25
2023-01-04T10:49:12.761Z,47.75
2023-01-04T10:52:24.607Z,56.75
2023-01-04T10:55:35.479Z,83.50
2023-01-04T10:58:44.654Z,61.50
2023-01-04T11:01:55.565Z,60.50
2023-01-04T11:05:06.489Z,60.25
2023-01-04T11:08:18.007Z,67.00
2023-01-04T11:11:26.357Z,60.00
2023-01-04T11:14:36.765Z,65.75
2023-01-04T11:17:42.880Z,67.75
2023-01-04T11:20:49.025Z,99.67
2023-01-04T11:28:43.313Z,65.75
2023-01-04T11:31:55.093Z,56.00
2023-01-04T11:34:59.727Z,50.75
2023-01-04T11:38:12.153Z,47.50
2023-01-04T11:41:17.977Z,47.75
2023-01-04T11:44:21.518Z,48.50
2023-01-04T11:47:33.020Z,46.75
2023-01-04T11:50:40.331Z,102.00
2023-01-04T11:53:46.251Z,51.25
2023-01-04T11:57:03.633Z,44.50
2023-01-04T12:00:11.872Z,56.50
2023-01-04T12:03:18.729Z,50.50
2023-01-04T12:06:32.439Z,54.00
2023-01-04T12:09:37.703Z,49.00
2023-01-04T12:12:41.895Z,46.25
2023-01-04T12:15:57.764Z,50.75
2023-01-04T12:19:01.716Z,54.25
2023-01-04T12:22:23.946Z,63.75
2023-01-04T12:25:36.786Z,54.25
2023-01-04T12:28:43.374Z,65.50
2023-01-04T12:31:48.813Z,48.75
2023-01-04T12:34:53.166Z,45.00
2023-01-04T12:37:57.212Z,50.75
2023-01-04T12:41:02.708Z,49.00
2023-01-04T12:44:52.423Z,53.75
2023-01-04T12:48:13.595Z,48.75
2023-01-04T12:51:31.681Z,54.50
2023-01-04T12:54:47.605Z,49.25
2023-01-04T12:57:53.509Z,53.25
2023-01-04T13:01:24.112Z,49.50
2023-01-04T13:04:41.815Z,43.75
2023-01-04T13:07:48.479Z,51.50
2023-01-04T13:10:55.307Z,48.25
2023-01-04T13:14:06.475Z,47.75
2023-01-04T13:17:18.853Z,54.75
2023-01-04T13:20:26.716Z,49.75
2023-01-04T13:23:32.080Z,51.75
2023-01-04T13:26:42.982Z,53.75
2023-01-04T13:29:48.911Z,51.50
2023-01-04T13:33:24.759Z,47.00
2023-01-04T13:36:17.251Z,50.50
2023-01-04T13:39:21.531Z,45.50
2023-01-04T13:42:29.308Z,54.00
2023-01-04T13:45:49.231Z,55.50
2023-01-04T13:48:59.562Z,52.00
2023-01-04T13:52:44.708Z,54.75
2023-01-04T13:55:40.488Z,45.75
2023-01-04T13:59:12.095Z,50.50
2023-01-04T14:02:34.597Z,63.00
2023-01-04T14:05:39.852Z,41.50
2023-01-04T14:08:50.469Z,57.50
2023-01-04T14:12:10.152Z,85.50
2023-01-04T14:15:21.821Z,54.25
2023-01-04T14:18:32.640Z,49.25
2023-01-04T14:21:39.173Z,52.25
2023-01-04T14:25:08.421Z,51.00
2023-01-04T14:28:48.913Z,58.50
2023-01-04T14:31:52.927Z,74.00
2023-01-04T14:35:13.427Z,103.33
2023-01-04T14:38:19.777Z,113.67
2023-01-04T14:41:32.648Z,82.75
2023-01-04T14:44:41.311Z,81.00
2023-01-04T14:47:45.208Z,67.25
2023-01-04T14:50:52.159Z,66.50
2023-01-04T14:54:07.957Z,61.50
2023-01-04T14:57:17.281Z,60.75
2023-01-04T15:00:21.438Z,76.50
2023-01-04T15:03:25.326Z,59.00
2023-01-04T15:06:31.212Z,66.25
2023-01-04T15:09:37.351Z,98.67
2023-01-04T15:12:42.299Z,62.00
2023-01-04T15:15:46.131Z,61.50
2023-01-04T15:18:50.629Z,72.25
2023-01-04T15:21:55.537Z,66.25
2023-01-04T15:24:59.812Z,65.75
2023-01-04T15:28:03.288Z,77.75
2023-01-04T15:31:09.707Z,84.00
2023-01-04T15:34:17.144Z,147.67
2023-01-04T15:37:25.537Z,65.25
2023-01-04T15:40:29.331Z,68.75
2023-01-04T15:43:36.374Z,70.00
2023-01-04T15:46:43.850Z,67.50
2023-01-04T15:49:47.933Z,70.50
2023-01-04T15:52:53.030Z,66.00
2023-01-04T15:56:06.145Z,63.25
2023-01-04T15:59:09.710Z,63.75
2023-01-04T16:02:16.019Z,74.50
2023-01-04T16:05:20.858Z,66.75
2023-01-04T16:08:26.320Z,94.00
2023-01-04T16:11:29.926Z,81.00
2023-01-04T16:14:34.103Z,77.50
2023-01-04T16:17:37.971Z,78.00
2023-01-04T16:20:42.496Z,237.25
2023-01-04T16:23:50.993Z,156.75
2023-01-04T16:26:56.843Z,191.00
2023-01-04T16:30:00.721Z,138.50
2023-01-04T16:33:04.703Z,120.00
2023-01-04T16:36:11.909Z,103.00
2023-01-04T16:39:17.270Z,148.00
2023-01-04T16:42:21.111Z,103.00
2023-01-04T16:45:25.010Z,73.67
2023-01-04T16:48:29.611Z,72.33
2023-01-04T16:51:35.775Z,73.50
2023-01-04T16:54:42.331Z,82.33
2023-01-04T16:57:46.596Z,86.00
2023-01-04T17:00:50.375Z,64.67
2023-01-04T17:05:12.450Z,71.25
2023-01-04T17:08:19.632Z,85.67
2023-01-04T17:15:15.068Z,72.50
2023-01-04T17:18:20.959Z,70.67
2023-01-04T17:21:35.254Z,121.67
2023-01-04T17:24:39.328Z,71.33
2023-01-04T17:27:45.339Z,74.67
2023-01-04T17:30:49.217Z,74.67
2023-01-04T17:33:56.424Z,68.00
2023-01-04T17:37:00.655Z,68.33
2023-01-04T17:40:11.098Z,90.67
2023-01-04T17:43:17.039Z,66.50
2023-01-04T17:46:23.772Z,124.00
2023-01-04T17:49:31.474Z,238.25
2023-01-04T17:52:37.963Z,184.25
2023-01-04T17:55:41.457Z,93.00
2023-01-04T17:58:51.941Z,90.00
2023-01-04T18:01:55.607Z,91.00
2023-01-04T18:05:00.850Z,108.67
2023-01-04T18:08:05.200Z,87.33
2023-01-04T18:11:09.892Z,115.33
2023-01-04T18:14:14.959Z,98.67
2023-01-04T18:17:19.221Z,85.00
2023-01-04T18:20:25.586Z,132.67
2023-01-04T18:23:30.805Z,110.33
2023-01-04T18:26:53.428Z,72.00
2023-01-04T18:30:02.106Z,100.00
2023-01-04T18:33:06.725Z,114.00
2023-01-04T18:36:13.483Z,84.00
2023-01-04T18:39:16.919Z,127.67
2023-01-04T18:42:21.633Z,140.00
2023-01-04T18:45:29.104Z,130.67
2023-01-04T18:48:33.160Z,118.33
2023-01-04T18:51:37.339Z,146.25
2023-01-04T18:54:43.112Z,116.67
2023-01-04T18:57:46.899Z,83.33
2023-01-04T19:01:00.862Z,91.33
2023-01-04T19:04:05.197Z,138.67
2023-01-04T19:07:09.013Z,93.33
2023-01-04T19:10:12.550Z,94.33
2023-01-04T19:13:16.921Z,102.67
2023-01-04T19:16:29.437Z,108.00
2023-01-04T19:19:34.894Z,148.25
2023-01-04T19:22:57.084Z,143.25
2023-01-04T19:26:01.010Z,122.00
2023-01-04T19:29:05.308Z,126.67
2023-01-04T19:32:10.684Z,194.00
2023-01-04T19:35:14.087Z,182.25
2023-01-04T19:38:18.180Z,183.00
2023-01-04T19:41:29.273Z,122.50
2023-01-04T19:44:37.784Z,156.00
2023-01-04T19:47:42.595Z,145.50
2023-01-04T19:50:46.840Z,180.00
2023-01-04T19:53:50.694Z,150.75
2023-01-04T19:56:55.374Z,150.25
2023-01-04T19:59:59.988Z,150.75
2023-01-04T20:03:06.127Z,139.75
2023-01-04T20:06:11.575Z,138.00
2023-01-04T20:09:15.771Z,196.50
2023-01-04T20:12:19.291Z,202.50
2023-01-04T20:15:23.462Z,122.33
2023-01-04T20:18:29.244Z,107.00
2023-01-04T20:21:33.700Z,71.33
2023-01-04T20:24:37.679Z,129.33
2023-01-04T20:27:41.645Z,130.33
2023-01-04T20:30:45.231Z,43.00
2023-01-04T20:33:51.037Z,109.00
2023-01-04T20:36:54.628Z,99.33
2023-01-04T20:39:58.741Z,84.67
2023-01-04T20:43:19.382Z,112.67
2023-01-04T20:46:27.220Z,125.67
2023-01-04T20:49:35.858Z,148.50
2023-01-04T20:52:42.006Z,161.00
2023-01-04T20:55:50.062Z,167.75
2023-01-04T20:58:56.124Z,162.75
2023-01-04T21:01:59.759Z,168.75
2023-01-04T21:05:05.910Z,177.25
2023-01-04T21:08:11.391Z,190.00
2023-01-04T21:11:18.903Z,220.00
2023-01-04T21:14:22.439Z,222.50
2023-01-04T21:17:26.440Z,67.50
2023-01-04T21:20:31.481Z,178.25
2023-01-04T21:23:35.470Z,182.00
2023-01-04T21:26:40.993Z,190.25
2023-01-04T21:29:46.139Z,198.50
2023-01-04T21:32:49.704Z,202.00
2023-01-04T21:35:55.741Z,222.00
2023-01-04T21:39:00.542Z,211.50
2023-01-04T21:42:07.697Z,196.00
2023-01-04T21:45:11.917Z,204.75
2023-01-04T21:48:16.138Z,223.00
2023-01-04T21:51:21.258Z,200.00
2023-01-04T21:54:25.471Z,193.75
2023-01-04T21:57:30.586Z,195.25
2023-01-04T22:00:36.285Z,189.25
2023-01-04T22:03:40.777Z,182.50
2023-01-04T22:06:46.564Z,134.00
2023-01-04T22:09:55.414Z,152.50
2023-01-04T22:13:01.341Z,195.25
2023-01-04T22:16:07.480Z,179.25
2023-01-04T22:19:13.316Z,168.50
2023-01-04T22:22:18.227Z,182.50
2023-01-04T22:25:22.295Z,210.50
2023-01-04T22:28:27.699Z,219.00
2023-01-04T22:31:33.505Z,168.00
2023-01-04T22:34:37.891Z,195.25
2023-01-04T22:37:44.983Z,210.50
2023-01-04T22:40:49.260Z,141.25
2023-01-04T22:43:58.294Z,171.75
2023-01-04T22:47:02.621Z,187.00
2023-01-04T22:50:08.589Z,155.75
2023-01-04T22:53:18.957Z,155.25
2023-01-04T22:56:25.692Z,152.25
2023-01-04T22:59:30.386Z,111.67
2023-01-04T23:02:34.486Z,120.33
2023-01-04T23:05:42.713Z,112.33
2023-01-04T23:08:49.966Z,94.00
2023-01-04T23:11:53.389Z,91.67
2023-01-04T23:15:00.293Z,112.67
2023-01-04T23:18:03.948Z,127.67
2023-01-04T23:21:08.757Z,108.33
2023-01-04T23:24:15.458Z,110.33
2023-01-04T23:27:19.580Z,116.33
2023-01-04T23:30:25.445Z,122.67
2023-01-04T23:33:35.625Z,105.33
2023-01-04T23:36:42.484Z,122.00
2023-01-04T23:39:47.924Z,97.33
2023-01-04T23:42:53.103Z,107.00
2023-01-04T23:45:58.049Z,93.00
2023-01-04T23:49:01.593Z,120.33
2023-01-04T23:52:06.839Z,132.00
2023-01-04T23:55:13.658Z,111.33
2023-01-04T23:58:17.564Z,115.67
